Time;durP1;ratioP1;P1;durP2;ratioP2;P2;SDS_P1;SDS_P2;PMS_P1;PMS_P2;Temp;Humidity;BMP_temperature;BMP_pressure;BME280_temperature;BME280_humidity;BME280_pressure;Samples;Min_cycle;Max_cycle;Signal;HPM_P1;HPM_P2
2021/11/03 00:01:55;;;;;;;;;;;;;;;10.73;94.41;99318.56;5036835;28;786;-63
2021/11/03 00:04:22;;;;;;;;;;;;;;;10.71;94.70;99320.16;5054185;28;1932;-63
2021/11/03 00:06:49;;;;;;;;;;;;;;;10.67;94.30;99330.47;5054202;28;870;-63
2021/11/03 00:09:15;;;;;;;;;;;;;;;10.58;94.47;99328.22;5054160;28;877;-63
2021/11/03 00:11:41;;;;;;;;;;;;;;;10.45;94.23;99327.97;5054163;28;810;-63
2021/11/03 00:14:08;;;;;;;;;;;;;;;10.27;93.86;99336.47;5054059;28;818;-63
2021/11/03 00:16:34;;;;;;;;;;;;;;;10.12;94.59;99341.34;5036378;28;1292;-63
2021/11/03 00:19:01;;;;;;;;;;;;;;;10.11;94.94;99344.50;5031911;28;1264;-63
2021/11/03 00:21:27;;;;;;;;;;;;;;;10.08;94.83;99350.88;5034233;28;826;-63
2021/11/03 00:23:54;;;;;;;;;;;;;;;10.00;94.51;99348.16;5033971;28;886;-63
2021/11/03 00:26:20;;;;;;;;;;;;;;;9.86;94.58;99344.75;5033903;28;1914;-63
2021/11/03 00:28:46;;;;;;;;;;;;;;;9.80;94.67;99341.66;5033810;28;791;-63
2021/11/03 00:31:13;;;;;;;;;;;;;;;9.76;94.64;99341.69;5033879;28;826;-63
2021/11/03 00:33:39;;;;;;;;;;;;;;;9.72;94.55;99346.47;5033782;28;870;-63
2021/11/03 00:36:06;;;;;;;;;;;;;;;9.71;94.79;99330.34;5033840;28;854;-63
2021/11/03 00:38:33;;;;;;;;;;;;;;;9.67;94.51;99332.34;5033749;28;854;-63
2021/11/03 00:40:59;;;;;;;;;;;;;;;9.73;95.20;99330.69;5033642;28;815;-63
2021/11/03 00:43:26;;;;;;;;;;;;;;;9.74;94.89;99333.03;5033659;28;807;-63
2021/11/03 00:45:52;;;;;;;;;;;;;;;9.72;94.87;99342.91;5032276;28;1949;-64
2021/11/03 00:48:19;;;;;;;;;;;;;;;9.72;95.14;99338.19;5033731;28;850;-64
2021/11/03 00:50:47;;;;;;;;;;;;;;;9.73;95.19;99348.03;5033772;28;775;-64
2021/11/03 00:53:14;;;;;;;;;;;;;;;9.73;95.19;99350.81;5033730;28;811;-64
2021/11/03 00:55:41;;;;;;;;;;;;;;;9.69;94.97;99349.28;5033389;28;871;-64
2021/11/03 00:58:06;;;;;;;;;;;;;;;9.61;94.84;99356.81;5033372;28;850;-64
2021/11/03 01:00:34;;;;;;;;;;;;;;;9.51;94.63;99361.22;5033418;28;826;-64
2021/11/03 01:03:02;;;;;;;;;;;;;;;9.46;95.05;99367.16;5033258;28;878;-64
2021/11/03 01:05:29;;;;;;;;;;;;;;;9.43;94.84;99364.44;5033196;28;1937;-64
2021/11/03 01:07:56;;;;;;;;;;;;;;;9.41;95.04;99370.38;5033121;28;893;-64
2021/11/03 01:10:26;;;;;;;;;;;;;;;9.39;95.24;99367.22;5033154;28;898;-63
2021/11/03 01:12:53;;;;;;;;;;;;;;;9.41;95.55;99373.13;5033046;28;847;-64
2021/11/03 01:15:21;;;;;;;;;;;;;;;9.39;95.39;99370.78;5033225;28;866;-64
2021/11/03 01:17:48;;;;;;;;;;;;;;;9.32;95.10;99376.31;5033061;28;1024;-64
2021/11/03 01:20:15;;;;;;;;;;;;;;;9.33;95.53;99377.13;5050794;28;1287;-63
2021/11/03 01:22:41;;;;;;;;;;;;;;;9.22;94.86;99379.16;5052812;28;803;-64
2021/11/03 01:25:09;;;;;;;;;;;;;;;9.15;95.08;99385.50;5052593;28;1902;-64
2021/11/03 01:27:36;;;;;;;;;;;;;;;9.09;95.10;99387.91;5052604;28;834;-64
2021/11/03 01:30:03;;;;;;;;;;;;;;;9.03;94.80;99391.50;5052603;28;831;-64
2021/11/03 01:32:29;;;;;;;;;;;;;;;8.98;94.95;99400.94;5051627;28;839;-64
2021/11/03 01:34:56;;;;;;;;;;;;;;;8.96;95.14;99403.31;5052564;28;791;-64
2021/11/03 01:37:23;;;;;;;;;;;;;;;8.90;94.96;99413.97;5052589;28;881;-64
2021/11/03 01:39:49;;;;;;;;;;;;;;;8.90;95.19;99415.97;5052412;28;878;-64
2021/11/03 01:42:16;;;;;;;;;;;;;;;8.88;95.17;99410.06;5052386;28;905;-64
2021/11/03 01:44:42;;;;;;;;;;;;;;;8.76;94.66;99411.28;5052324;28;1941;-64
2021/11/03 01:47:27;;;;;;;;;;;;;;;8.68;94.79;99416.03;5052323;28;965;-64
2021/11/03 01:49:53;;;;;;;;;;;;;;;8.65;94.86;99413.28;5052280;28;865;-64
2021/11/03 01:52:20;;;;;;;;;;;;;;;8.55;94.11;99412.13;5052216;28;818;-63
2021/11/03 01:54:50;;;;;;;;;;;;;;;8.49;94.81;99417.28;5052159;28;862;-64
2021/11/03 01:57:18;;;;;;;;;;;;;;;8.41;94.92;99410.22;5052051;28;823;-64
2021/11/03 01:59:46;;;;;;;;;;;;;;;8.30;94.94;99425.94;5052163;28;838;-64
2021/11/03 02:02:14;;;;;;;;;;;;;;;8.14;94.55;99423.59;5052061;28;807;-64
2021/11/03 02:04:41;;;;;;;;;;;;;;;8.01;94.70;99422.44;5051926;28;1891;-64
2021/11/03 02:07:10;;;;;;;;;;;;;;;7.89;94.39;99429.13;5051991;28;877;-64
2021/11/03 02:09:37;;;;;;;;;;;;;;;7.82;95.12;99432.66;5052080;28;861;-64
2021/11/03 02:12:03;;;;;;;;;;;;;;;7.93;96.06;99433.44;5051909;28;811;-64
2021/11/03 02:14:31;;;;;;;;;;;;;;;7.88;94.95;99430.31;5051841;28;854;-64
2021/11/03 02:16:57;;;;;;;;;;;;;;;7.75;94.81;99438.16;5051783;28;1010;-65
2021/11/03 02:19:32;;;;;;;;;;;;;;;7.65;94.76;99436.19;5051557;28;1383;-64
2021/11/03 02:21:59;;;;;;;;;;;;;;;7.63;94.82;99438.53;5051806;28;870;-64
2021/11/03 02:24:28;;;;;;;;;;;;;;;7.69;96.31;99439.72;5033695;28;1963;-64
2021/11/03 02:26:55;;;;;;;;;;;;;;;7.89;96.78;99437.38;5051625;28;854;-64
2021/11/03 02:29:22;;;;;;;;;;;;;;;7.98;96.63;99440.53;5051640;28;846;-64
2021/11/03 02:31:51;;;;;;;;;;;;;;;8.07;96.67;99438.16;5051638;28;843;-64
2021/11/03 02:34:21;;;;;;;;;;;;;;;8.14;96.77;99443.66;5051579;28;799;-64
2021/11/03 02:36:56;;;;;;;;;;;;;;;8.24;96.40;99449.56;5051577;28;869;-64
2021/11/03 02:39:29;;;;;;;;;;;;;;;8.25;96.44;99446.38;5051476;28;876;-64
2021/11/03 02:41:55;;;;;;;;;;;;;;;8.27;96.15;99452.28;5051312;28;946;-64
2021/11/03 02:44:24;;;;;;;;;;;;;;;8.28;96.69;99450.31;5051441;28;1878;-64
2021/11/03 02:46:50;;;;;;;;;;;;;;;8.24;96.26;99455.06;5051441;28;884;-64
2021/11/03 02:49:17;;;;;;;;;;;;;;;8.20;96.29;99460.56;5051445;28;905;-64
2021/11/03 02:51:44;;;;;;;;;;;;;;;8.05;95.40;99459.00;5051345;28;874;-64
2021/11/03 02:54:21;;;;;;;;;;;;;;;7.92;95.59;99450.34;5051411;28;838;-64
2021/11/03 02:56:54;;;;;;;;;;;;;;;7.77;95.17;99464.09;5051503;28;902;-64
2021/11/03 02:59:22;;;;;;;;;;;;;;;7.71;95.28;99475.88;5051309;28;846;-64
2021/11/03 03:01:50;;;;;;;;;;;;;;;7.76;95.82;99478.25;5051246;28;850;-64
2021/11/03 03:04:16;;;;;;;;;;;;;;;7.82;95.59;99487.69;5052049;28;816;-64
2021/11/03 03:06:43;;;;;;;;;;;;;;;7.87;95.93;99490.06;5051167;28;2029;-64
2021/11/03 03:09:10;;;;;;;;;;;;;;;7.94;96.28;99492.81;5049936;28;1152;-64
2021/11/03 03:11:38;;;;;;;;;;;;;;;7.96;95.91;99508.94;5051205;28;877;-64
2021/11/03 03:14:05;;;;;;;;;;;;;;;8.04;96.16;99501.47;5051217;28;865;-64
2021/11/03 03:16:31;;;;;;;;;;;;;;;8.14;96.56;99511.69;5051749;28;775;-64
2021/11/03 03:18:58;;;;;;;;;;;;;;;8.25;96.97;99508.94;5051046;28;1264;-64
2021/11/03 03:21:26;;;;;;;;;;;;;;;8.32;97.09;99512.50;5051132;28;851;-64
2021/11/03 03:23:53;;;;;;;;;;;;;;;8.36;97.08;99505.00;5051053;28;842;-64
2021/11/03 03:26:21;;;;;;;;;;;;;;;8.41;97.13;99500.28;5051225;28;1981;-64
2021/11/03 03:28:48;;;;;;;;;;;;;;;8.39;96.96;99501.47;5051294;28;917;-64
2021/11/03 03:31:15;;;;;;;;;;;;;;;8.35;96.82;99508.94;5051344;28;815;-64
2021/11/03 03:33:42;;;;;;;;;;;;;;;8.26;96.27;99507.78;5051271;28;966;-64
2021/11/03 03:36:09;;;;;;;;;;;;;;;8.15;96.72;99499.50;5051485;28;853;-64
2021/11/03 03:38:36;;;;;;;;;;;;;;;8.06;96.73;99516.41;5033384;28;1169;-64
2021/11/03 03:41:03;;;;;;;;;;;;;;;8.02;97.13;99518.34;5051128;28;901;-64
2021/11/03 03:43:29;;;;;;;;;;;;;;;8.01;97.31;99527.81;5051265;28;877;-64
2021/11/03 03:45:56;;;;;;;;;;;;;;;8.01;97.35;99532.53;5050941;28;1894;-64
2021/11/03 03:48:22;;;;;;;;;;;;;;;8.01;96.90;99551.78;5050856;28;865;-64
2021/11/03 03:50:50;;;;;;;;;;;;;;;7.96;97.46;99552.97;5051098;28;830;-64
2021/11/03 03:53:16;;;;;;;;;;;;;;;7.93;97.08;99556.50;5051584;28;767;-64
2021/11/03 03:55:42;;;;;;;;;;;;;;;7.89;97.20;99550.97;5053303;28;909;-64
2021/11/03 03:58:09;;;;;;;;;;;;;;;7.87;96.81;99547.03;5054591;28;858;-64
2021/11/03 04:00:35;;;;;;;;;;;;;;;7.86;97.07;99546.25;5054624;28;810;-64
2021/11/03 04:03:02;;;;;;;;;;;;;;;7.86;97.25;99546.25;5054582;28;842;-64
2021/11/03 04:05:29;;;;;;;;;;;;;;;7.85;96.87;99541.94;5054230;28;1947;-64
2021/11/03 04:07:56;;;;;;;;;;;;;;;7.84;97.34;99547.84;5054238;28;806;-64
2021/11/03 04:10:23;;;;;;;;;;;;;;;7.83;96.98;99552.56;5054152;28;811;-64
2021/11/03 04:12:49;;;;;;;;;;;;;;;7.83;96.81;99555.31;5054146;28;814;-64
2021/11/03 04:15:16;;;;;;;;;;;;;;;7.85;96.91;99561.22;5054146;28;798;-64
2021/11/03 04:17:43;;;;;;;;;;;;;;;7.87;97.03;99561.63;5054296;28;920;-64
2021/11/03 04:20:11;;;;;;;;;;;;;;;7.88;97.34;99579.69;5032683;28;1257;-64
2021/11/03 04:22:37;;;;;;;;;;;;;;;7.93;96.98;99573.78;5034026;28;901;-64
2021/11/03 04:25:06;;;;;;;;;;;;;;;7.94;96.94;99582.84;5033786;28;1965;-64
2021/11/03 04:27:33;;;;;;;;;;;;;;;7.93;96.95;99581.25;5033967;28;878;-64
2021/11/03 04:30:00;;;;;;;;;;;;;;;7.94;96.60;99585.59;5032651;28;1247;-64
2021/11/03 04:32:26;;;;;;;;;;;;;;;7.95;96.73;99584.41;5033837;28;811;-64
2021/11/03 04:34:53;;;;;;;;;;;;;;;7.96;97.20;99591.50;5033852;28;791;-64
2021/11/03 04:37:19;;;;;;;;;;;;;;;7.98;97.32;99589.94;5032388;28;1247;-64
2021/11/03 04:39:46;;;;;;;;;;;;;;;8.02;96.76;99594.63;5033731;28;830;-64
2021/11/03 04:42:12;;;;;;;;;;;;;;;8.05;97.20;99594.66;5033650;28;839;-64
2021/11/03 04:44:39;;;;;;;;;;;;;;;8.09;97.36;99600.19;5033580;28;1971;-64
2021/11/03 04:47:06;;;;;;;;;;;;;;;8.09;96.82;99600.19;5048887;28;1313;-64
2021/11/03 04:49:33;;;;;;;;;;;;;;;8.11;97.26;99601.34;5033581;28;878;-64
2021/11/03 04:51:59;;;;;;;;;;;;;;;8.12;97.27;99599.38;5033448;28;814;-64
2021/11/03 04:54:25;;;;;;;;;;;;;;;8.09;97.23;99597.44;5033345;28;787;-64
2021/11/03 04:56:52;;;;;;;;;;;;;;;8.06;97.10;99600.94;5033412;28;823;-64
2021/11/03 04:59:19;;;;;;;;;;;;;;;8.04;97.17;99592.28;5048692;28;1302;-64
2021/11/03 05:01:45;;;;;;;;;;;;;;;8.05;97.04;99599.38;5033443;28;870;-64
2021/11/03 05:04:12;;;;;;;;;;;;;;;8.07;97.27;99599.78;5033200;28;858;-64
2021/11/03 05:06:40;;;;;;;;;;;;;;;8.12;97.38;99600.16;5048330;28;1894;-64
2021/11/03 05:09:07;;;;;;;;;;;;;;;8.15;97.14;99602.16;5048465;28;1140;-64
2021/11/03 05:19:27;;;;;;;;;;;;;;;8.21;96.86;99604.50;5098344;22;1761;-61
2021/11/03 05:21:55;;;;;;;;;;;;;;;8.18;97.11;99625.34;5052853;28;1030;-61
2021/11/03 05:24:21;;;;;;;;;;;;;;;8.16;96.90;99635.97;5052872;28;889;-61
2021/11/03 05:26:48;;;;;;;;;;;;;;;8.14;97.03;99652.88;5052761;28;1995;-60
2021/11/03 05:29:16;;;;;;;;;;;;;;;8.12;97.26;99657.19;5052768;28;818;-61
2021/11/03 05:31:43;;;;;;;;;;;;;;;8.08;96.81;99656.41;5034792;28;1616;-61
2021/11/03 05:34:10;;;;;;;;;;;;;;;8.04;97.15;99661.09;5052604;28;810;-61
2021/11/03 05:36:37;;;;;;;;;;;;;;;8.03;97.25;99670.53;5052777;28;841;-61
2021/11/03 05:39:06;;;;;;;;;;;;;;;8.02;97.29;99671.72;5052526;28;873;-61
2021/11/03 05:41:37;;;;;;;;;;;;;;;8.03;97.21;99678.81;5052523;28;822;-61
2021/11/03 05:44:07;;;;;;;;;;;;;;;8.05;97.68;99685.50;5052497;28;850;-61
2021/11/03 05:46:35;;;;;;;;;;;;;;;8.17;98.07;99687.09;5052401;28;1894;-61
2021/11/03 05:49:05;;;;;;;;;;;;;;;8.22;97.91;99685.94;5052272;28;904;-60
2021/11/03 05:51:33;;;;;;;;;;;;;;;8.43;98.99;99693.47;5052317;28;826;-61
2021/11/03 05:53:58;;;;;;;;;;;;;;;8.74;100.00;99702.97;5052289;28;925;-61
2021/11/03 05:56:25;;;;;;;;;;;;;;;9.10;100.00;99705.75;5052296;28;783;-61
2021/11/03 05:58:51;;;;;;;;;;;;;;;9.07;98.20;99704.56;5052151;28;810;-61
2021/11/03 06:01:18;;;;;;;;;;;;;;;9.08;96.91;99708.88;5052184;28;798;-61
2021/11/03 06:03:45;;;;;;;;;;;;;;;8.99;96.52;99706.53;5052141;28;802;-61
2021/11/03 06:06:12;;;;;;;;;;;;;;;9.12;97.15;99717.94;5051961;28;1890;-61
2021/11/03 06:08:39;;;;;;;;;;;;;;;9.30;96.88;99720.72;5052063;28;1000;-61
2021/11/03 06:11:06;;;;;;;;;;;;;;;9.20;96.07;99727.03;5052016;28;1090;-61
2021/11/03 06:13:32;;;;;;;;;;;;;;;9.03;96.12;99723.09;5051918;28;916;-61
2021/11/03 06:15:59;;;;;;;;;;;;;;;8.92;95.93;99741.59;5051893;28;826;-60
2021/11/03 06:18:26;;;;;;;;;;;;;;;8.86;96.14;99743.16;5050981;28;1464;-60
2021/11/03 06:20:52;;;;;;;;;;;;;;;8.78;96.36;99740.38;5051811;28;853;-61
2021/11/03 06:23:19;;;;;;;;;;;;;;;8.82;96.17;99756.16;5051772;28;838;-60
2021/11/03 06:25:45;;;;;;;;;;;;;;;8.83;96.18;99752.97;5051705;28;1921;-60
2021/11/03 06:28:13;;;;;;;;;;;;;;;8.85;95.87;99755.34;5051761;28;826;-61
2021/11/03 06:30:39;;;;;;;;;;;;;;;8.92;96.01;99761.66;5051710;28;803;-61
2021/11/03 06:33:07;;;;;;;;;;;;;;;8.92;96.03;99769.94;5051678;28;920;-61
2021/11/03 06:35:34;;;;;;;;;;;;;;;9.63;96.72;99770.31;5051610;28;869;-60
2021/11/03 06:38:05;;;;;;;;;;;;;;;9.74;94.09;99777.38;5051628;28;827;-60
2021/11/03 06:40:31;;;;;;;;;;;;;;;10.51;93.90;99768.47;5051560;28;855;-61
2021/11/03 06:42:58;;;;;;;;;;;;;;;10.38;90.36;99764.59;5051543;28;978;-60
2021/11/03 06:45:25;;;;;;;;;;;;;;;10.57;91.08;99766.06;5051422;28;2236;-61
2021/11/03 06:47:52;;;;;;;;;;;;;;;11.35;89.38;99770.28;5051327;28;853;-61
2021/11/03 06:50:28;;;;;;;;;;;;;;;11.50;86.88;99762.63;5051510;28;826;-61
2021/11/03 06:55:39;;;;;;;;;;;;;;;10.89;88.75;99784.44;5215533;22;2454;-61
2021/11/03 06:58:05;;;;;;;;;;;;;;;10.99;88.89;99789.13;5051711;28;889;-60
2021/11/03 07:00:34;;;;;;;;;;;;;;;11.14;88.58;99781.50;5051692;28;826;-60
2021/11/03 07:03:01;;;;;;;;;;;;;;;10.98;88.02;99784.78;5051395;28;814;-60
2021/11/03 07:05:30;;;;;;;;;;;;;;;11.14;89.29;99785.06;5051523;28;1973;-60
2021/11/03 07:07:56;;;;;;;;;;;;;;;11.53;87.79;99786.72;5051371;28;889;-61
2021/11/03 07:10:27;;;;;;;;;;;;;;;11.57;86.76;99793.00;5051201;28;822;-61
2021/11/03 07:12:53;;;;;;;;;;;;;;;11.44;86.60;99798.25;5051282;28;849;-61
2021/11/03 07:15:20;;;;;;;;;;;;;;;11.12;88.02;99815.09;5051248;28;854;-61
2021/11/03 07:17:47;;;;;;;;;;;;;;;11.32;87.64;99804.28;5051238;28;861;-60
2021/11/03 07:20:13;;;;;;;;;;;;;;;11.38;86.51;99801.88;5051492;28;913;-60
2021/11/03 07:22:40;;;;;;;;;;;;;;;11.48;86.00;99802.97;5051213;28;909;-60
2021/11/03 07:25:07;;;;;;;;;;;;;;;11.41;85.49;99799.09;5051035;28;1878;-60
2021/11/03 07:27:34;;;;;;;;;;;;;;;11.04;86.36;99811.59;5051118;28;857;-60
2021/11/03 07:30:01;;;;;;;;;;;;;;;10.83;87.45;99809.75;5052871;28;838;-60
2021/11/03 07:32:28;;;;;;;;;;;;;;;10.75;87.96;99812.94;5054944;28;818;-60
2021/11/03 07:34:55;;;;;;;;;;;;;;;10.68;87.87;99813.78;5054997;28;885;-60
2021/11/03 07:37:21;;;;;;;;;;;;;;;10.87;89.09;99817.25;5054891;28;893;-60
2021/11/03 07:39:48;;;;;;;;;;;;;;;11.04;87.82;99810.81;5054805;28;896;-60
2021/11/03 07:42:15;;;;;;;;;;;;;;;11.34;88.50;99817.72;5054855;28;822;-60
2021/11/03 07:44:41;;;;;;;;;;;;;;;11.60;86.36;99822.63;5054724;28;1947;-60
2021/11/03 07:47:08;;;;;;;;;;;;;;;12.07;86.25;99815.88;5054677;28;874;-60
2021/11/03 07:49:34;;;;;;;;;;;;;;;12.32;85.16;99819.16;5054666;28;834;-60
2021/11/03 07:52:01;;;;;;;;;;;;;;;12.12;85.59;99826.50;5054602;28;853;-60
2021/11/03 07:54:28;;;;;;;;;;;;;;;12.17;85.21;99828.84;5054324;28;1186;-60
2021/11/03 07:56:55;;;;;;;;;;;;;;;12.05;84.59;99821.81;5054739;28;841;-60
2021/11/03 07:59:21;;;;;;;;;;;;;;;12.52;87.31;99824.06;5054454;28;831;-60
2021/11/03 08:01:47;;;;;;;;;;;;;;;13.12;84.24;99816.09;5054441;28;871;-60
2021/11/03 08:04:13;;;;;;;;;;;;;;;13.59;83.17;99819.75;5054665;28;897;-60
2021/11/03 08:06:40;;;;;;;;;;;;;;;13.68;81.59;99828.31;5054343;28;1981;-60
2021/11/03 08:09:07;;;;;;;;;;;;;;;13.42;82.66;99834.69;5036684;28;1165;-60
2021/11/03 08:11:37;;;;;;;;;;;;;;;13.22;83.12;99840.16;5054360;28;847;-60
2021/11/03 08:14:05;;;;;;;;;;;;;;;13.02;81.62;99837.28;5054225;28;814;-60
2021/11/03 08:16:38;;;;;;;;;;;;;;;12.80;83.20;99834.00;5054087;28;874;-60
2021/11/03 08:19:04;;;;;;;;;;;;;;;12.64;84.19;99843.72;5054054;28;811;-60
2021/11/03 08:21:31;;;;;;;;;;;;;;;12.81;84.01;99843.91;5054084;28;897;-60
2021/11/03 08:23:57;;;;;;;;;;;;;;;12.73;83.10;99848.75;5054068;28;897;-60
2021/11/03 08:26:23;;;;;;;;;;;;;;;12.73;84.63;99854.28;5053896;28;1961;-60
2021/11/03 08:28:50;;;;;;;;;;;;;;;13.14;85.12;99855.31;5053918;28;854;-60
2021/11/03 08:31:16;;;;;;;;;;;;;;;13.63;83.48;99853.00;5053816;28;876;-60
2021/11/03 08:33:45;;;;;;;;;;;;;;;13.81;83.63;99847.94;5035786;28;1279;-60
2021/11/03 08:36:13;;;;;;;;;;;;;;;13.68;84.32;99847.00;5053778;28;893;-60
2021/11/03 08:38:40;;;;;;;;;;;;;;;13.86;85.23;99853.00;5053622;28;846;-60
2021/11/03 08:41:07;;;;;;;;;;;;;;;14.18;85.13;99851.63;5053131;28;910;-60
2021/11/03 08:43:35;;;;;;;;;;;;;;;14.33;83.63;99846.59;5053762;28;830;-60
2021/11/03 08:46:02;;;;;;;;;;;;;;;14.30;84.54;99839.91;5051702;28;1947;-60
2021/11/03 08:48:28;;;;;;;;;;;;;;;14.66;86.47;99849.56;5053566;28;881;-60
2021/11/03 08:50:55;;;;;;;;;;;;;;;15.29;85.32;99860.47;5053516;28;865;-60
2021/11/03 08:53:22;;;;;;;;;;;;;;;15.87;81.05;99851.53;5053352;28;1005;-60
2021/11/03 08:55:49;;;;;;;;;;;;;;;16.12;80.01;99855.66;5053203;28;1448;-60
2021/11/03 08:58:17;;;;;;;;;;;;;;;16.33;76.85;99860.66;5053355;28;826;-60
2021/11/03 09:00:45;;;;;;;;;;;;;;;16.19;76.33;99869.41;5053261;28;834;-60
2021/11/03 09:03:12;;;;;;;;;;;;;;;16.12;76.56;99873.16;5053277;28;826;-60
2021/11/03 09:05:39;;;;;;;;;;;;;;;16.10;75.48;99866.47;5053470;28;1976;-60
2021/11/03 09:08:07;;;;;;;;;;;;;;;16.31;74.89;99867.91;5053116;28;868;-60
2021/11/03 09:10:38;;;;;;;;;;;;;;;16.78;73.50;99861.78;5053226;28;826;-60
2021/11/03 09:13:05;;;;;;;;;;;;;;;16.46;71.18;99859.91;5053228;28;818;-60
2021/11/03 09:15:32;;;;;;;;;;;;;;;16.12;74.41;99864.81;5052978;28;866;-60
2021/11/03 09:17:58;;;;;;;;;;;;;;;15.79;73.42;99868.84;5052879;28;894;-60
2021/11/03 09:20:26;;;;;;;;;;;;;;;15.39;75.28;99874.59;5052936;28;881;-60
2021/11/03 09:22:52;;;;;;;;;;;;;;;15.54;76.17;99870.25;5052769;28;830;-60
2021/11/03 09:25:20;;;;;;;;;;;;;;;16.03;75.46;99873.03;5052735;28;1939;-60
2021/11/03 09:27:47;;;;;;;;;;;;;;;16.36;72.48;99870.16;5052741;28;854;-60
2021/11/03 09:30:16;;;;;;;;;;;;;;;16.74;70.75;99875.84;5052738;28;826;-61
2021/11/03 09:32:45;;;;;;;;;;;;;;;17.06;70.60;99873.34;5052734;28;826;-60
2021/11/03 09:35:12;;;;;;;;;;;;;;;17.71;68.10;99872.91;5052546;28;866;-60
2021/11/03 09:37:39;;;;;;;;;;;;;;;18.00;66.30;99868.38;5052724;28;897;-60
2021/11/03 09:40:07;;;;;;;;;;;;;;;17.92;66.62;99870.63;5052537;28;822;-60
2021/11/03 09:42:34;;;;;;;;;;;;;;;18.30;66.82;99873.28;5052862;28;956;-60
2021/11/03 09:45:01;;;;;;;;;;;;;;;18.29;64.04;99879.38;5053282;28;1910;-60
2021/11/03 09:47:31;;;;;;;;;;;;;;;18.11;65.54;99868.78;5052399;28;1164;-60
2021/11/03 09:50:19;;;;;;;;;;;;;;;18.02;65.44;99865.91;5052332;28;818;-60
2021/11/03 09:52:51;;;;;;;;;;;;;;;18.17;63.90;99875.38;5050194;28;811;-60
2021/11/03 09:55:18;;;;;;;;;;;;;;;18.39;64.07;99874.59;5052193;28;1245;-61
2021/11/03 09:57:48;;;;;;;;;;;;;;;18.52;62.74;99876.13;5052260;28;826;-60
2021/11/03 10:00:18;;;;;;;;;;;;;;;18.82;63.51;99878.66;5052178;28;806;-60
2021/11/03 10:02:51;;;;;;;;;;;;;;;19.34;63.29;99872.22;5052027;28;898;-60
2021/11/03 10:05:17;;;;;;;;;;;;;;;19.25;62.27;99869.41;5051942;28;2001;-60
2021/11/03 10:07:51;;;;;;;;;;;;;;;18.48;64.01;99869.09;5051887;28;861;-60
2021/11/03 10:10:24;;;;;;;;;;;;;;;18.11;64.31;99866.75;5052076;28;822;-61
2021/11/03 10:12:51;;;;;;;;;;;;;;;17.83;65.71;99868.53;5051928;28;1043;-61
2021/11/03 10:15:19;;;;;;;;;;;;;;;17.97;66.21;99864.47;5051938;28;874;-60
2021/11/03 10:18:05;;;;;;;;;;;;;;;17.73;65.85;99864.03;5051845;28;836;-60
2021/11/03 10:20:32;;;;;;;;;;;;;;;17.66;65.95;99853.88;5051768;28;830;-60
2021/11/03 10:23:32;;;;;;;;;;;;;;;17.80;66.01;99857.44;5051714;28;791;-60
2021/11/03 10:26:04;;;;;;;;;;;;;;;17.73;66.28;99856.47;5018487;28;1878;-60
2021/11/03 10:28:36;;;;;;;;;;;;;;;17.54;66.30;99855.47;5051734;28;798;-60
2021/11/03 10:31:19;;;;;;;;;;;;;;;17.56;65.72;99855.03;5051669;28;893;-60
2021/11/03 10:33:45;;;;;;;;;;;;;;;17.82;64.25;99853.00;5051686;28;814;-60
2021/11/03 10:36:23;;;;;;;;;;;;;;;17.91;63.71;99860.69;5051539;28;1030;-60
2021/11/03 10:38:56;;;;;;;;;;;;;;;17.84;63.86;99860.94;5033821;28;1467;-60
2021/11/03 10:41:27;;;;;;;;;;;;;;;17.98;64.47;99852.03;5051606;28;886;-60
2021/11/03 10:44:08;;;;;;;;;;;;;;;18.21;63.80;99842.44;5051684;28;817;-60
2021/11/03 10:47:09;;;;;;;;;;;;;;;18.04;63.49;99838.28;5051441;28;1882;-61
2021/11/03 10:49:47;;;;;;;;;;;;;;;18.51;64.21;99835.38;4990063;28;1300;-60
2021/11/03 10:52:17;;;;;;;;;;;;;;;18.80;63.97;99834.34;4990438;28;907;-61
2021/11/03 10:55:06;;;;;;;;;;;;;;;19.07;64.53;99821.69;4989716;28;1215;-60
2021/11/03 10:57:40;;;;;;;;;;;;;;;19.02;65.28;99814.66;4989142;28;1543;-60
2021/11/03 11:00:19;;;;;;;;;;;;;;;19.09;65.25;99819.22;4990042;28;1018;-61
2021/11/03 11:02:51;;;;;;;;;;;;;;;19.02;63.80;99811.88;4989954;28;930;-60
2021/11/03 11:05:20;;;;;;;;;;;;;;;19.06;64.52;99809.72;4993849;28;1980;-60
2021/11/03 11:07:51;;;;;;;;;;;;;;;19.10;63.22;99810.34;4993927;28;919;-60
2021/11/03 11:10:29;;;;;;;;;;;;;;;19.18;63.66;99814.44;4993908;28;1155;-61
2021/11/03 11:12:56;;;;;;;;;;;;;;;19.29;63.29;99819.59;4993921;28;823;-60
2021/11/03 11:15:36;;;;;;;;;;;;;;;19.32;63.21;99821.47;4993951;28;795;-60
2021/11/03 11:18:22;;;;;;;;;;;;;;;19.46;63.43;99816.50;4994082;28;1040;-60
2021/11/03 11:20:53;;;;;;;;;;;;;;;19.50;61.57;99815.16;4993592;28;1440;-60
2021/11/03 11:23:19;;;;;;;;;;;;;;;19.74;63.31;99823.78;5002025;28;1313;-61
2021/11/03 11:26:04;;;;;;;;;;;;;;;19.79;63.23;99828.75;5054906;28;1882;-61
2021/11/03 11:28:30;;;;;;;;;;;;;;;19.89;63.53;99828.78;5054976;28;850;-60
2021/11/03 11:31:14;;;;;;;;;;;;;;;19.77;64.43;99828.44;5054983;28;814;-60
2021/11/03 11:33:46;;;;;;;;;;;;;;;19.37;66.59;99825.69;5055009;28;802;-60
2021/11/03 11:36:16;;;;;;;;;;;;;;;19.26;66.61;99831.72;5054783;28;906;-60
2021/11/03 11:38:51;;;;;;;;;;;;;;;19.37;66.00;99829.28;5036986;28;1148;-60
2021/11/03 11:41:41;;;;;;;;;;;;;;;19.57;66.30;99831.66;5054864;28;807;-60
2021/11/03 11:44:17;;;;;;;;;;;;;;;19.84;65.52;99832.19;5046894;28;1396;-61
2021/11/03 11:46:46;;;;;;;;;;;;;;;20.09;63.52;99831.91;5054786;28;1949;-61
2021/11/03 11:49:23;;;;;;;;;;;;;;;20.05;63.48;99836.88;5054435;28;895;-60
2021/11/03 11:51:51;;;;;;;;;;;;;;;20.11;63.28;99837.03;5054555;28;887;-60
2021/11/03 11:54:18;;;;;;;;;;;;;;;20.13;62.93;99828.94;5054567;28;1507;-60
2021/11/03 11:57:04;;;;;;;;;;;;;;;20.17;62.75;99824.72;5054453;28;1121;-60
2021/11/03 11:59:50;;;;;;;;;;;;;;;20.21;62.81;99827.38;5054279;28;1096;-60
2021/11/03 12:02:19;;;;;;;;;;;;;;;20.23;62.39;99824.09;5054414;28;827;-60
2021/11/03 12:04:47;;;;;;;;;;;;;;;20.42;63.05;99808.00;5054260;28;1906;-60
2021/11/03 12:07:22;;;;;;;;;;;;;;;20.49;62.14;99808.47;5054186;28;842;-60
2021/11/03 12:09:58;;;;;;;;;;;;;;;20.68;63.10;99809.25;5036384;28;1173;-61
2021/11/03 12:12:25;;;;;;;;;;;;;;;20.94;63.73;99812.44;5054624;28;822;-61
2021/11/03 12:14:55;;;;;;;;;;;;;;;21.41;63.62;99804.56;5053315;28;806;-60
2021/11/03 12:17:40;;;;;;;;;;;;;;;21.55;61.17;99800.28;5054214;28;865;-58
2021/11/03 12:20:27;;;;;;;;;;;;;;;21.45;61.38;99799.56;5054018;28;866;-60
2021/11/03 12:23:13;;;;;;;;;;;;;;;21.63;61.57;99784.59;5043581;28;1322;-59
2021/11/03 12:25:43;;;;;;;;;;;;;;;21.90;60.84;99772.38;5022683;28;1878;-58
2021/11/03 12:28:09;;;;;;;;;;;;;;;21.78;59.77;99779.03;5053841;28;917;-60
2021/11/03 12:30:37;;;;;;;;;;;;;;;21.75;60.79;99777.19;5054103;28;834;-60
2021/11/03 12:33:06;;;;;;;;;;;;;;;21.78;59.82;99793.09;5053771;28;878;-60
2021/11/03 12:35:33;;;;;;;;;;;;;;;21.70;59.50;99789.09;5053801;28;873;-60
2021/11/03 12:38:02;;;;;;;;;;;;;;;21.85;59.34;99791.94;5053626;28;867;-60
2021/11/03 12:40:37;;;;;;;;;;;;;;;21.77;58.42;99800.75;5053627;28;850;-60
2021/11/03 12:43:13;;;;;;;;;;;;;;;21.88;58.13;99793.81;5053870;28;810;-60
2021/11/03 12:45:48;;;;;;;;;;;;;;;21.80;57.76;99793.38;5053522;28;1941;-59
2021/11/03 12:48:38;;;;;;;;;;;;;;;21.87;58.93;99792.25;5053578;28;849;-58
2021/11/03 12:51:20;;;;;;;;;;;;;;;22.05;58.97;99805.41;5045468;28;1520;-60
2021/11/03 12:53:48;;;;;;;;;;;;;;;22.12;58.69;99805.00;5053565;28;977;-58
2021/11/03 12:56:18;;;;;;;;;;;;;;;22.34;58.45;99808.28;5053201;28;1318;-60
2021/11/03 12:58:46;;;;;;;;;;;;;;;22.43;59.21;99807.44;5053521;28;889;-60
2021/11/03 13:01:23;;;;;;;;;;;;;;;22.25;58.01;99805.53;5035462;28;1244;-60
2021/11/03 13:04:09;;;;;;;;;;;;;;;21.90;57.12;99806.13;5053400;28;830;-60
2021/11/03 13:06:41;;;;;;;;;;;;;;;21.92;58.51;99814.09;5042226;28;1911;-60
2021/11/03 13:09:25;;;;;;;;;;;;;;;22.08;59.27;99804.44;5053145;28;822;-60
2021/11/03 13:11:52;;;;;;;;;;;;;;;22.00;59.56;99804.81;5053305;28;1275;-60
2021/11/03 13:14:23;;;;;;;;;;;;;;;21.92;59.57;99805.66;5035437;28;731;-60
2021/11/03 13:16:51;;;;;;;;;;;;;;;21.87;59.65;99812.72;5052877;28;854;-60
2021/11/03 13:19:36;;;;;;;;;;;;;;;21.82;60.10;99822.59;5053050;28;896;-60
2021/11/03 13:22:14;;;;;;;;;;;;;;;21.82;61.34;99821.81;5052997;28;853;-60
2021/11/03 13:24:40;;;;;;;;;;;;;;;21.88;61.19;99824.75;5034958;28;1264;-60
2021/11/03 13:27:12;;;;;;;;;;;;;;;22.09;61.65;99828.50;5052650;28;1907;-60
2021/11/03 13:29:40;;;;;;;;;;;;;;;22.03;60.32;99817.91;5052757;28;826;-60
2021/11/03 13:32:16;;;;;;;;;;;;;;;21.71;60.38;99830.81;5052703;28;869;-60